Time;durP1;ratioP1;P1;durP2;ratioP2;P2;SDS_P1;SDS_P2;PMS_P1;PMS_P2;Temp;Humidity;BMP_temperature;BMP_pressure;BME280_temperature;BME280_humidity;BME280_pressure;Samples;Min_cycle;Max_cycle;Signal;HPM_P1;HPM_P2
2022/08/24 00:01:57;;;;;;;0.88;0.70;;;;;;;25.71;48.07;101674.84;5084362;28;20028;-42
2022/08/24 00:04:22;;;;;;;0.88;0.70;;;;;;;25.70;48.06;101673.19;5081896;28;20029;-43
2022/08/24 00:06:48;;;;;;;1.25;0.82;;;;;;;25.66;48.09;101667.28;5082993;28;20113;-43
2022/08/24 00:09:14;;;;;;;1.00;0.70;;;;;;;25.69;47.97;101685.91;5072596;28;20029;-44
2022/08/24 00:11:40;;;;;;;1.15;0.70;;;;;;;25.68;48.00;101678.78;5079517;28;20025;-43
2022/08/24 00:14:05;;;;;;;0.80;0.70;;;;;;;25.69;48.01;101685.09;5083213;28;20088;-43
2022/08/24 00:16:31;;;;;;;0.82;0.60;;;;;;;25.67;48.14;101681.72;5070022;28;20565;-46
2022/08/24 00:18:56;;;;;;;1.00;0.85;;;;;;;25.65;48.22;101679.19;5084356;28;20084;-44
2022/08/24 00:21:22;;;;;;;0.50;0.50;;;;;;;25.67;48.05;101684.44;5084064;28;20016;-44
2022/08/24 00:23:50;;;;;;;1.05;0.80;;;;;;;25.65;48.15;101681.06;5084321;28;20492;-43
2022/08/24 00:26:15;;;;;;;0.43;0.40;;;;;;;25.66;48.09;101685.50;5084728;28;20025;-46
2022/08/24 00:28:41;;;;;;;0.70;0.70;;;;;;;25.66;48.02;101693.66;5084628;28;20292;-44
2022/08/24 00:31:06;;;;;;;0.80;0.77;;;;;;;25.65;48.06;101681.06;5070185;28;20034;-44
2022/08/24 00:33:32;;;;;;;1.05;0.63;;;;;;;25.65;48.11;101686.50;5078484;28;20033;-46
2022/08/24 00:35:57;;;;;;;1.05;0.75;;;;;;;25.65;47.92;101689.22;5074148;28;20032;-44
2022/08/24 00:38:23;;;;;;;0.70;0.63;;;;;;;25.63;48.15;101694.88;5067109;28;20027;-43
2022/08/24 00:40:48;;;;;;;0.63;0.50;;;;;;;25.61;48.01;101690.66;5073149;28;20032;-46
2022/08/24 00:43:18;;;;;;;0.65;0.60;;;;;;;25.63;48.05;101689.44;5070258;28;20063;-44
2022/08/24 00:46:01;;;;;;;0.60;0.50;;;;;;;25.62;48.13;101692.38;5076224;28;20797;-43
2022/08/24 00:48:29;;;;;;;0.73;0.73;;;;;;;25.61;48.23;101690.66;5077037;28;20033;-45
2022/08/24 00:51:17;;;;;;;0.80;0.70;;;;;;;25.61;48.13;101694.22;5070669;28;20150;-43
2022/08/24 00:53:47;;;;;;;0.68;0.60;;;;;;;25.61;48.19;101696.09;5078219;28;20044;-44
2022/08/24 00:56:19;;;;;;;0.68;0.60;;;;;;;25.60;48.13;101692.53;5083780;28;20035;-46
2022/08/24 00:58:48;;;;;;;0.52;0.50;;;;;;;25.59;48.14;101701.75;5079770;28;20021;-43
2022/08/24 01:01:13;;;;;;;0.65;0.55;;;;;;;25.58;48.16;101696.53;5071254;28;20020;-47
2022/08/24 01:03:41;;;;;;;0.90;0.70;;;;;;;25.58;48.09;101702.81;5097074;28;20351;-48
2022/08/24 01:06:06;;;;;;;0.88;0.70;;;;;;;25.59;48.05;101700.91;5083196;28;20089;-49
2022/08/24 01:08:32;;;;;;;0.75;0.50;;;;;;;25.57;48.13;101697.53;5083875;28;20020;-43
2022/08/24 01:11:00;;;;;;;0.90;0.52;;;;;;;25.58;48.07;101696.53;5072548;28;20025;-50
2022/08/24 01:13:26;;;;;;;0.40;0.40;;;;;;;25.56;48.10;101698.56;5082705;28;20035;-45
2022/08/24 01:15:54;;;;;;;0.65;0.60;;;;;;;25.56;48.20;101698.56;5067430;28;20032;-48
2022/08/24 01:21:38;;;;;;;0.50;0.50;;;;;;;25.54;48.16;101698.78;5081147;28;20090;-45
2022/08/24 01:24:09;;;;;;;0.70;0.50;;;;;;;25.53;48.03;101688.94;5096584;28;20221;-44
2022/08/24 01:26:42;;;;;;;0.45;0.40;;;;;;;25.53;48.23;101688.94;5058455;28;20028;-44
2022/08/24 01:29:15;;;;;;;0.60;0.52;;;;;;;25.51;47.95;101688.25;5076082;28;20092;-46
2022/08/24 01:31:41;;;;;;;0.93;0.50;;;;;;;25.49;48.32;101679.47;5068721;28;20023;-48
2022/08/24 01:34:06;;;;;;;0.47;0.47;;;;;;;25.48;48.29;101682.34;5082962;28;20028;-48
2022/08/24 01:36:37;;;;;;;0.50;0.50;;;;;;;25.52;48.22;101687.22;5082846;28;20028;-47
2022/08/24 01:39:09;;;;;;;0.50;0.45;;;;;;;25.52;48.07;101691.81;5083507;28;20036;-49
2022/08/24 01:41:34;;;;;;;0.70;0.57;;;;;;;25.50;48.14;101692.03;5098633;28;20032;-44
2022/08/24 01:43:59;;;;;;;0.88;0.63;;;;;;;25.49;48.14;101687.63;5082945;28;20024;-43
2022/08/24 01:46:25;;;;;;;0.50;0.50;;;;;;;25.50;47.98;101693.91;5082543;28;20039;-45
2022/08/24 01:48:50;;;;;;;0.50;0.50;;;;;;;25.49;48.20;101692.22;5082950;28;20130;-46
2022/08/24 01:51:15;;;;;;;0.68;0.60;;;;;;;25.49;48.03;101701.25;5082733;28;20115;-44
2022/08/24 01:53:41;;;;;;;0.50;0.45;;;;;;;25.48;48.12;101696.81;5082670;28;20108;-46
2022/08/24 01:56:06;;;;;;;0.70;0.52;;;;;;;25.47;48.06;101691.56;5082756;28;20035;-48
2022/08/24 01:58:31;;;;;;;0.70;0.50;;;;;;;25.48;48.06;101694.09;5068988;28;20016;-48
2022/08/24 02:00:57;;;;;;;0.68;0.50;;;;;;;25.46;48.12;101696.19;5073774;28;20048;-44
2022/08/24 02:03:23;;;;;;;0.50;0.50;;;;;;;25.46;48.12;101693.44;5082803;28;20036;-43
2022/08/24 02:05:48;;;;;;;0.70;0.60;;;;;;;25.45;47.95;101689.06;5082589;28;20074;-43
2022/08/24 02:08:13;;;;;;;0.65;0.52;;;;;;;25.45;48.20;101686.34;5069419;28;20048;-45
2022/08/24 02:10:39;;;;;;;0.60;0.50;;;;;;;25.45;47.97;101691.78;5080005;28;20021;-45
2022/08/24 02:13:04;;;;;;;0.45;0.45;;;;;;;25.44;48.06;101692.78;5078929;28;20496;-44
2022/08/24 02:15:32;;;;;;;0.45;0.40;;;;;;;25.44;47.80;101690.06;5070254;28;20021;-45
2022/08/24 02:17:58;;;;;;;0.80;0.60;;;;;;;25.42;47.98;101684.00;5072648;28;20020;-42
2022/08/24 02:20:24;;;;;;;0.50;0.50;;;;;;;25.42;47.97;101694.88;5087297;28;20036;-47
2022/08/24 02:22:50;;;;;;;0.40;0.40;;;;;;;25.42;48.06;101698.44;5074838;28;20074;-41
2022/08/24 02:25:16;;;;;;;0.60;0.50;;;;;;;25.43;48.08;101699.28;5086900;28;20076;-43
2022/08/24 02:27:41;;;;;;;0.43;0.43;;;;;;;25.41;48.03;101701.38;5072853;28;20032;-42
2022/08/24 02:30:07;;;;;;;0.40;0.40;;;;;;;25.42;48.02;101705.75;5078630;28;20036;-45
2022/08/24 02:32:33;;;;;;;0.68;0.40;;;;;;;25.40;48.06;101705.97;5080233;28;20051;-43
2022/08/24 02:34:58;;;;;;;0.65;0.50;;;;;;;25.41;48.12;101702.22;5072271;28;20024;-43
2022/08/24 02:37:23;;;;;;;0.63;0.47;;;;;;;25.39;48.06;101712.44;5086273;28;20028;-44
2022/08/24 02:39:48;;;;;;;0.40;0.40;;;;;;;25.39;48.22;101704.25;5072549;28;20024;-42
2022/08/24 02:42:14;;;;;;;0.30;0.30;;;;;;;25.37;47.94;101702.78;5076401;28;20166;-44
2022/08/24 02:44:40;;;;;;;0.60;0.40;;;;;;;25.37;47.97;101709.06;5082362;28;20599;-44
2022/08/24 02:47:05;;;;;;;0.68;0.50;;;;;;;25.38;48.06;101713.47;5085956;28;20028;-43
2022/08/24 02:49:30;;;;;;;0.30;0.30;;;;;;;25.37;47.87;101711.78;5086491;28;20020;-45
2022/08/24 02:51:56;;;;;;;0.50;0.50;;;;;;;25.37;47.94;101714.50;5070577;28;20020;-45
2022/08/24 02:54:22;;;;;;;0.60;0.40;;;;;;;25.37;48.07;101710.94;5085730;28;20513;-44
2022/08/24 02:56:47;;;;;;;0.57;0.50;;;;;;;25.36;48.00;101710.13;5086044;28;20028;-43
2022/08/24 02:59:12;;;;;;;0.40;0.40;;;;;;;25.35;48.06;101707.56;5085013;28;20022;-45
2022/08/24 03:01:38;;;;;;;0.45;0.45;;;;;;;25.35;48.33;101702.13;5085775;28;20032;-44
2022/08/24 03:04:03;;;;;;;0.60;0.50;;;;;;;25.34;48.20;101709.44;5085913;28;20024;-44
2022/08/24 03:06:29;;;;;;;0.50;0.50;;;;;;;25.35;47.97;101713.00;5085825;28;20031;-44
2022/08/24 03:08:55;;;;;;;0.52;0.40;;;;;;;25.33;48.08;101699.59;5086447;28;20969;-42
2022/08/24 03:11:20;;;;;;;0.40;0.40;;;;;;;25.30;48.01;101694.53;5084624;28;20682;-44
2022/08/24 03:13:46;;;;;;;0.70;0.45;;;;;;;25.33;47.68;101698.75;5072355;28;20031;-45
2022/08/24 03:16:11;;;;;;;0.50;0.47;;;;;;;25.32;48.16;101699.81;5079366;28;20453;-44
2022/08/24 03:18:37;;;;;;;0.35;0.32;;;;;;;25.31;47.97;101706.25;5077765;28;20024;-45
2022/08/24 03:21:02;;;;;;;0.43;0.43;;;;;;;25.31;48.04;101700.81;5071472;28;20023;-45
2022/08/24 03:23:27;;;;;;;0.38;0.38;;;;;;;25.29;48.03;101702.91;5085829;28;20032;-43
2022/08/24 03:25:53;;;;;;;0.60;0.40;;;;;;;25.29;47.82;101703.75;5082497;28;20052;-43
2022/08/24 03:28:20;;;;;;;0.70;0.57;;;;;;;25.29;48.01;101703.75;5073135;28;20118;-45
2022/08/24 03:30:45;;;;;;;0.65;0.50;;;;;;;25.29;47.88;101700.19;5072169;28;20033;-43
2022/08/24 03:33:10;;;;;;;0.60;0.50;;;;;;;25.28;47.80;101706.66;5079282;28;20021;-43
2022/08/24 03:35:37;;;;;;;0.40;0.30;;;;;;;25.27;48.00;101707.69;5076662;28;20029;-47
2022/08/24 03:38:03;;;;;;;0.40;0.40;;;;;;;25.26;48.02;101706.00;5071377;28;20016;-45
2022/08/24 03:40:28;;;;;;;0.32;0.32;;;;;;;25.27;47.96;101707.69;5076442;28;20024;-42
2022/08/24 03:42:54;;;;;;;0.47;0.40;;;;;;;25.26;48.02;101708.72;5079240;28;20028;-43
2022/08/24 03:45:20;;;;;;;0.40;0.40;;;;;;;25.25;47.96;101704.31;5072735;28;20080;-43
2022/08/24 03:47:46;;;;;;;0.40;0.40;;;;;;;25.21;47.87;101692.97;5071560;28;20088;-43
2022/08/24 03:50:12;;;;;;;0.40;0.40;;;;;;;25.24;48.01;101699.91;5079476;28;20056;-44
2022/08/24 03:52:37;;;;;;;0.57;0.55;;;;;;;25.23;48.07;101699.03;5075724;28;20067;-44
2022/08/24 03:55:04;;;;;;;0.68;0.40;;;;;;;25.24;48.24;101699.91;5084016;28;20127;-44
2022/08/24 03:57:30;;;;;;;0.40;0.40;;;;;;;25.22;48.09;101693.81;5084793;28;20055;-43
2022/08/24 03:59:55;;;;;;;0.32;0.30;;;;;;;25.22;48.03;101700.09;5084149;28;20028;-42
2022/08/24 04:02:20;;;;;;;0.45;0.30;;;;;;;25.20;48.10;101695.88;5083850;28;20021;-42
2022/08/24 04:04:46;;;;;;;0.40;0.40;;;;;;;25.21;48.02;101700.28;5084502;28;20024;-45
2022/08/24 04:07:11;;;;;;;0.43;0.43;;;;;;;25.20;48.05;101699.44;5084150;28;20024;-46
2022/08/24 04:09:36;;;;;;;0.40;0.40;;;;;;;25.17;47.96;101694.38;5084546;28;20409;-43
2022/08/24 04:12:02;;;;;;;0.75;0.40;;;;;;;25.20;48.10;101707.63;5084111;28;20033;-44
2022/08/24 04:14:27;;;;;;;0.40;0.40;;;;;;;25.20;48.09;101707.63;5083951;28;20017;-43
2022/08/24 04:16:53;;;;;;;0.52;0.40;;;;;;;25.20;48.00;101706.78;5083407;28;20032;-44
2022/08/24 04:19:18;;;;;;;0.40;0.40;;;;;;;25.18;48.05;101702.34;5084165;28;20044;-43
2022/08/24 04:21:43;;;;;;;0.40;0.40;;;;;;;25.19;48.09;101700.50;5083422;28;20020;-43
2022/08/24 04:24:10;;;;;;;0.63;0.55;;;;;;;25.19;48.17;101711.38;5083745;28;20012;-43
2022/08/24 04:26:37;;;;;;;0.38;0.30;;;;;;;25.19;48.04;101708.66;5083825;28;20024;-45
2022/08/24 04:29:04;;;;;;;0.32;0.30;;;;;;;25.18;48.10;101715.94;5083877;28;20087;-43
2022/08/24 04:31:30;;;;;;;0.40;0.40;;;;;;;25.18;48.10;101726.00;5082430;28;20118;-43
2022/08/24 04:33:55;;;;;;;0.55;0.50;;;;;;;25.18;48.19;101723.28;5083996;28;20026;-47
2022/08/24 04:36:22;;;;;;;0.30;0.30;;;;;;;25.16;48.12;101731.66;5083351;28;20052;-46
2022/08/24 04:38:47;;;;;;;0.70;0.45;;;;;;;25.15;48.18;101729.13;5083105;28;20021;-45
2022/08/24 04:41:14;;;;;;;0.40;0.38;;;;;;;25.16;48.13;101726.19;5083626;28;20177;-43
2022/08/24 04:43:44;;;;;;;0.30;0.30;;;;;;;25.16;48.02;101731.66;5080420;28;20017;-45
2022/08/24 04:46:13;;;;;;;0.43;0.38;;;;;;;25.16;48.20;101736.25;5081798;28;20074;-43
2022/08/24 04:48:39;;;;;;;0.43;0.38;;;;;;;25.15;48.14;101740.00;5083788;28;20024;-42
2022/08/24 04:51:06;;;;;;;0.50;0.40;;;;;;;25.16;48.25;101738.97;5083021;28;20086;-41
2022/08/24 04:53:33;;;;;;;1.33;1.23;;;;;;;25.15;48.30;101734.56;5083518;28;20052;-43
2022/08/24 04:55:59;;;;;;;0.40;0.40;;;;;;;25.15;48.29;101735.41;5090093;28;20036;-43
2022/08/24 04:58:24;;;;;;;0.30;0.30;;;;;;;25.13;48.33;101734.75;5080751;28;20024;-42
2022/08/24 05:00:50;;;;;;;0.40;0.30;;;;;;;25.12;48.23;101735.78;5082872;28;20027;-44
2022/08/24 05:03:15;;;;;;;0.40;0.40;;;;;;;25.08;48.39;101725.44;5082608;28;20025;-41
2022/08/24 05:05:44;;;;;;;0.52;0.40;;;;;;;25.13;48.32;101733.91;5082666;28;20476;-41
2022/08/24 05:08:11;;;;;;;0.43;0.40;;;;;;;25.12;48.70;101735.78;5080479;28;20044;-42
2022/08/24 05:10:38;;;;;;;0.30;0.30;;;;;;;25.12;48.47;101743.09;5082917;28;20023;-43
2022/08/24 05:13:03;;;;;;;0.38;0.30;;;;;;;25.12;48.58;101743.09;5082922;28;20020;-42
2022/08/24 05:15:30;;;;;;;0.28;0.28;;;;;;;25.12;48.39;101749.38;5082959;28;20031;-42
2022/08/24 05:17:55;;;;;;;0.50;0.40;;;;;;;25.12;48.40;101752.09;5082421;28;20052;-43
2022/08/24 05:20:20;;;;;;;0.30;0.30;;;;;;;25.12;48.31;101754.81;5089525;28;20028;-42
2022/08/24 05:22:45;;;;;;;0.30;0.28;;;;;;;25.11;48.49;101755.03;5080674;28;20025;-43
2022/08/24 05:25:11;;;;;;;0.70;0.30;;;;;;;25.11;48.45;101758.59;5082651;28;20378;-42
2022/08/24 05:27:36;;;;;;;0.43;0.30;;;;;;;25.10;48.45;101759.59;5081578;28;20030;-45
2022/08/24 05:30:03;;;;;;;0.40;0.40;;;;;;;25.10;48.34;101758.75;5083488;28;20027;-44
2022/08/24 05:32:28;;;;;;;0.55;0.43;;;;;;;25.10;48.58;101761.47;5082564;28;20028;-44
2022/08/24 05:34:54;;;;;;;0.50;0.50;;;;;;;25.09;48.47;101762.53;5082487;28;20016;-45
2022/08/24 05:37:19;;;;;;;0.57;0.50;;;;;;;25.08;48.45;101766.25;5082370;28;20055;-45
2022/08/24 05:39:44;;;;;;;0.60;0.40;;;;;;;25.08;48.43;101760.81;5083186;28;20016;-42
2022/08/24 05:42:09;;;;;;;1.17;0.50;;;;;;;25.07;48.65;101761.84;5082246;28;20048;-42
2022/08/24 05:44:35;;;;;;;0.50;0.30;;;;;;;25.06;48.55;101752.84;5082471;28;20016;-42
2022/08/24 05:47:01;;;;;;;0.47;0.30;;;;;;;25.06;48.60;101760.13;5080729;28;20102;-44
2022/08/24 05:49:27;;;;;;;0.80;0.40;;;;;;;25.06;48.59;101760.13;5082975;28;20027;-41
2022/08/24 05:51:52;;;;;;;0.52;0.40;;;;;;;25.06;48.74;101763.72;5080971;28;20020;-44
2022/08/24 05:54:18;;;;;;;0.40;0.40;;;;;;;25.06;48.64;101761.00;5082703;28;20067;-43
2022/08/24 05:56:44;;;;;;;0.40;0.40;;;;;;;25.07;48.65;101761.84;5081729;28;20025;-44
2022/08/24 05:59:10;;;;;;;0.55;0.40;;;;;;;25.06;48.64;101755.56;5082243;28;20501;-44
2022/08/24 06:01:35;;;;;;;0.55;0.40;;;;;;;25.06;48.67;101761.00;5081009;28;20033;-45
2022/08/24 06:04:01;;;;;;;0.40;0.40;;;;;;;25.07;48.78;101770.00;5080119;28;20021;-43
2022/08/24 06:06:27;;;;;;;0.50;0.40;;;;;;;25.08;48.60;101768.97;5081634;28;20091;-43
2022/08/24 06:08:54;;;;;;;0.40;0.40;;;;;;;25.06;48.78;101769.16;5082727;28;20099;-44
2022/08/24 06:11:40;;;;;;;0.93;0.40;;;;;;;25.05;48.67;101766.63;5082604;28;20032;-48
2022/08/24 06:14:11;;;;;;;0.32;0.32;;;;;;;25.05;48.84;101772.91;5080705;28;20037;-43
2022/08/24 06:16:38;;;;;;;0.43;0.43;;;;;;;25.04;48.94;101775.81;5071087;28;20028;-43
2022/08/24 06:19:05;;;;;;;0.65;0.60;;;;;;;25.02;48.98;101775.16;5068821;28;20029;-46
2022/08/24 06:21:31;;;;;;;0.68;0.52;;;;;;;25.01;48.99;101768.03;5077799;28;20017;-44
2022/08/24 06:23:57;;;;;;;1.20;0.50;;;;;;;25.00;49.06;101777.22;5082915;28;20059;-44
2022/08/24 06:29:07;;;;;;;0.80;0.50;;;;;;;24.94;49.17;101782.41;5075392;28;20035;-43
2022/08/24 06:31:40;;;;;;;0.85;0.60;;;;;;;24.95;49.40;101783.25;5068160;28;20016;-44
2022/08/24 06:34:09;;;;;;;0.60;0.60;;;;;;;24.91;49.34;101779.19;5068542;28;20146;-42
2022/08/24 06:36:34;;;;;;;0.43;0.40;;;;;;;24.90;49.21;101786.53;5076471;28;20021;-42
2022/08/24 06:39:00;;;;;;;0.60;0.50;;;;;;;24.91;49.27;101793.66;5074069;28;20025;-42
2022/08/24 06:41:25;;;;;;;0.63;0.40;;;;;;;24.92;49.38;101798.03;5068482;28;20020;-43
2022/08/24 06:43:51;;;;;;;0.50;0.43;;;;;;;24.89;49.37;101793.00;5073343;28;20084;-42
2022/08/24 06:46:17;;;;;;;0.50;0.40;;;;;;;24.86;49.40;101796.09;5076861;28;20382;-41
2022/08/24 06:48:42;;;;;;;1.02;0.93;;;;;;;24.89;49.49;101803.00;5082379;28;20039;-41
2022/08/24 06:51:17;;;;;;;0.40;0.40;;;;;;;24.90;49.49;101796.56;5082017;28;20032;-42
2022/08/24 06:53:44;;;;;;;0.60;0.55;;;;;;;24.88;49.50;101793.16;5068676;28;20093;-43
2022/08/24 06:56:10;;;;;;;0.60;0.52;;;;;;;24.89;49.46;101797.56;5082106;28;20028;-42
2022/08/24 06:58:36;;;;;;;0.50;0.50;;;;;;;24.89;49.46;101792.13;5082613;28;20020;-42
2022/08/24 07:01:09;;;;;;;0.52;0.40;;;;;;;24.89;49.16;101794.84;5082026;28;20024;-42
2022/08/24 07:03:34;;;;;;;0.60;0.30;;;;;;;24.84;49.38;101786.41;5086340;28;20024;-43
2022/08/24 07:06:01;;;;;;;0.30;0.30;;;;;;;24.87;49.63;101794.22;5085486;28;20052;-43
2022/08/24 07:08:26;;;;;;;0.50;0.40;;;;;;;24.87;49.35;101797.78;5086032;28;20016;-48
2022/08/24 07:10:52;;;;;;;0.43;0.38;;;;;;;24.88;49.23;101798.59;5085970;28;20077;-47
2022/08/24 07:13:17;;;;;;;0.70;0.50;;;;;;;24.86;49.26;101796.09;5084543;28;20083;-47
2022/08/24 07:15:43;;;;;;;0.50;0.50;;;;;;;24.86;49.26;101795.25;5085351;28;20025;-46
2022/08/24 07:18:12;;;;;;;0.40;0.40;;;;;;;24.88;49.18;101796.72;5083697;28;20066;-42
2022/08/24 07:20:37;;;;;;;0.30;0.30;;;;;;;24.88;49.07;101795.88;5085991;28;20024;-42
2022/08/24 07:23:04;;;;;;;0.73;0.38;;;;;;;24.87;49.15;101807.81;5079657;28;20091;-43
2022/08/24 07:25:30;;;;;;;0.40;0.40;;;;;;;24.87;49.07;101805.94;5077728;28;20141;-44
2022/08/24 07:27:55;;;;;;;0.40;0.40;;;;;;;24.87;49.05;101800.50;5071252;28;20029;-46
2022/08/24 07:30:20;;;;;;;0.40;0.40;;;;;;;24.87;49.25;101805.09;5075546;28;20033;-42
2022/08/24 07:32:46;;;;;;;0.85;0.60;;;;;;;24.87;49.08;101805.09;5079270;28;20088;-44
2022/08/24 07:35:11;;;;;;;0.55;0.38;;;;;;;24.86;49.06;101804.25;5073113;28;20078;-44
2022/08/24 07:37:36;;;;;;;0.45;0.40;;;;;;;24.87;49.03;101811.38;5071319;28;20151;-43
2022/08/24 07:40:03;;;;;;;0.50;0.40;;;;;;;24.86;49.01;101814.28;5079512;28;20028;-43
2022/08/24 07:42:28;;;;;;;0.73;0.60;;;;;;;24.86;49.02;101812.41;5076936;28;20107;-47
2022/08/24 07:44:53;;;;;;;0.40;0.40;;;;;;;24.86;49.00;101808.84;5070964;28;20024;-47
2022/08/24 07:47:19;;;;;;;0.38;0.38;;;;;;;24.86;49.06;101809.69;5084724;28;20029;-44
2022/08/24 07:49:44;;;;;;;0.30;0.30;;;;;;;24.85;48.90;101813.44;5083742;28;20020;-42
2022/08/24 07:52:09;;;;;;;0.73;0.57;;;;;;;24.87;48.92;101814.09;5072606;28;20021;-44
2022/08/24 07:54:34;;;;;;;0.80;0.52;;;;;;;24.85;48.88;101805.28;5071529;28;20036;-44
2022/08/24 07:57:02;;;;;;;0.50;0.40;;;;;;;24.84;49.05;101802.72;5078712;28;20025;-43
2022/08/24 07:59:28;;;;;;;0.52;0.45;;;;;;;24.86;48.81;101806.97;5075402;28;20178;-46
2022/08/24 08:01:53;;;;;;;0.60;0.40;;;;;;;24.87;48.95;101816.81;5070115;28;20020;-43
2022/08/24 08:04:23;;;;;;;0.40;0.30;;;;;;;24.87;48.96;101814.09;5084911;28;20025;-44
2022/08/24 08:06:48;;;;;;;0.77;0.40;;;;;;;24.86;49.05;101817.84;5082539;28;20055;-45
2022/08/24 08:09:13;;;;;;;0.38;0.30;;;;;;;24.87;48.83;101815.97;5073004;28;20020;-45
2022/08/24 08:11:38;;;;;;;0.50;0.30;;;;;;;24.87;49.01;101822.25;5080281;28;20024;-44
2022/08/24 08:14:04;;;;;;;0.52;0.40;;;;;;;24.83;48.90;101818.22;5078870;28;20088;-44
2022/08/24 08:16:29;;;;;;;0.50;0.50;;;;;;;24.87;48.83;101824.13;5072554;28;20077;-46
2022/08/24 08:18:54;;;;;;;1.35;0.50;;;;;;;24.88;48.79;101825.81;5084731;28;20035;-42
2022/08/24 08:24:16;;;;;;;0.40;0.40;;;;;;;24.87;48.85;101826.84;5083657;28;20028;-43
2022/08/24 08:26:48;;;;;;;0.40;0.40;;;;;;;24.87;48.96;101824.97;5084270;28;20024;-46
2022/08/24 08:29:13;;;;;;;0.73;0.45;;;;;;;24.84;48.78;101819.91;5069605;28;20029;-44
2022/08/24 08:31:39;;;;;;;0.25;0.25;;;;;;;24.85;48.78;101823.47;5064174;28;20028;-42
2022/08/24 08:34:05;;;;;;;0.50;0.50;;;;;;;24.88;48.76;101828.53;5075552;28;20020;-47
2022/08/24 08:36:31;;;;;;;0.30;0.30;;;;;;;24.88;48.78;101831.25;5083887;28;20051;-43
2022/08/24 08:38:57;;;;;;;0.40;0.32;;;;;;;24.88;48.64;101832.09;5084486;28;20024;-43
2022/08/24 08:42:00;;;;;;;0.35;0.30;;;;;;;24.90;48.63;101832.78;5083958;28;20028;-43
2022/08/24 08:44:44;;;;;;;0.52;0.38;;;;;;;24.90;48.69;101829.22;5084016;28;20140;-46
2022/08/24 08:47:44;;;;;;;0.40;0.40;;;;;;;24.90;48.57;101832.78;5077265;28;20047;-44
2022/08/24 08:50:22;;;;;;;0.35;0.35;;;;;;;24.91;48.78;101834.44;5081957;28;20600;-43
2022/08/24 08:53:09;;;;;;;0.30;0.30;;;;;;;24.93;48.63;101840.56;5071236;28;20033;-44
2022/08/24 08:56:05;;;;;;;0.40;0.40;;;;;;;24.94;48.67;101828.66;5071400;28;20055;-44
2022/08/24 08:59:09;;;;;;;0.40;0.40;;;;;;;24.84;48.54;101814.47;5080283;28;20658;-44
2022/08/24 09:01:43;;;;;;;0.40;0.38;;;;;;;24.96;48.59;101833.03;5043875;28;20100;-44
2022/08/24 09:04:29;;;;;;;0.30;0.30;;;;;;;24.98;48.39;101836.41;5061096;28;20033;-44
2022/08/24 09:07:19;;;;;;;0.30;0.30;;;;;;;24.98;48.62;101834.56;5060585;28;20025;-43
2022/08/24 09:10:02;;;;;;;0.57;0.50;;;;;;;25.01;48.41;101838.78;5044124;28;20039;-41
2022/08/24 09:12:49;;;;;;;0.43;0.30;;;;;;;25.01;48.46;101833.31;5041814;28;20702;-44
2022/08/24 09:15:49;;;;;;;0.47;0.30;;;;;;;25.02;48.55;101835.88;5043692;28;20036;-42
2022/08/24 09:18:20;;;;;;;0.32;0.30;;;;;;;25.03;48.44;101832.13;4961952;29;20074;-42
2022/08/24 09:20:56;;;;;;;0.50;0.40;;;;;;;25.06;48.41;101839.91;4962522;29;20038;-42
2022/08/24 09:23:42;;;;;;;0.40;0.30;;;;;;;25.08;48.42;101831.56;4956312;29;20058;-45
2022/08/24 09:26:18;;;;;;;0.50;0.40;;;;;;;25.09;48.34;101834.09;4959556;29;20042;-41
2022/08/24 09:28:48;;;;;;;0.40;0.40;;;;;;;25.11;48.37;101837.50;4960601;29;20074;-41
2022/08/24 09:31:23;;;;;;;0.63;0.40;;;;;;;25.10;48.26;101829.50;4958697;29;20043;-44
2022/08/24 09:34:26;;;;;;;0.57;0.50;;;;;;;25.24;48.58;101830.56;4960244;29;20047;-43
2022/08/24 09:36:59;;;;;;;0.30;0.30;;;;;;;25.47;48.73;101834.00;4970185;28;20092;-43
2022/08/24 09:39:27;;;;;;;0.63;0.50;;;;;;;25.73;48.38;101833.47;4998659;28;20076;-45
2022/08/24 09:42:15;;;;;;;0.95;0.70;;;;;;;26.03;47.78;101836.13;4998731;28;20041;-42
2022/08/24 09:44:59;;;;;;;0.70;0.60;;;;;;;26.27;47.65;101833.03;4999389;28;20023;-46
2022/08/24 09:47:58;;;;;;;0.55;0.55;;;;;;;26.47;47.12;101835.13;4997744;28;20038;-43
2022/08/24 09:50:40;;;;;;;0.98;0.60;;;;;;;26.50;46.65;101826.53;4995318;28;20041;-44
2022/08/24 09:53:19;;;;;;;1.08;0.60;;;;;;;26.45;46.50;101834.47;5065317;28;20037;-44
2022/08/24 09:55:59;;;;;;;0.90;0.70;;;;;;;26.39;46.11;101831.47;5067038;28;20047;-44
2022/08/24 09:58:40;;;;;;;1.10;0.60;;;;;;;26.33;46.48;101831.38;5074797;28;20020;-42
2022/08/24 10:01:24;;;;;;;0.73;0.60;;;;;;;26.26;46.58;101825.91;5092006;28;20021;-43
2022/08/24 10:04:11;;;;;;;0.73;0.70;;;;;;;26.22;46.44;101831.94;5070089;28;20019;-44
2022/08/24 10:06:36;;;;;;;0.70;0.70;;;;;;;26.17;46.81;101829.78;5078180;28;20024;-45
2022/08/24 10:09:35;;;;;;;0.55;0.47;;;;;;;26.14;46.69;101825.56;5079022;28;20081;-44
2022/08/24 10:12:06;;;;;;;0.50;0.50;;;;;;;26.11;46.88;101823.22;5074085;28;20017;-48
2022/08/24 10:14:48;;;;;;;0.60;0.60;;;;;;;26.08;46.85;101818.19;5076209;28;20036;-43
2022/08/24 10:17:32;;;;;;;0.80;0.47;;;;;;;26.09;46.87;101813.56;5067191;28;20024;-46
2022/08/24 10:20:13;;;;;;;0.50;0.50;;;;;;;26.08;46.98;101812.72;5074651;28;20040;-44
2022/08/24 10:22:44;;;;;;;0.50;0.50;;;;;;;26.08;46.80;101809.13;5077034;28;20153;-44
2022/08/24 10:25:26;;;;;;;0.30;0.30;;;;;;;26.08;47.04;101815.47;5080380;28;20032;-44
2022/08/24 10:28:23;;;;;;;0.70;0.60;;;;;;;26.10;46.95;101805.19;5078496;28;20024;-43
2022/08/24 10:31:01;;;;;;;0.40;0.40;;;;;;;26.12;47.09;101813.16;5069541;28;20024;-45
2022/08/24 10:33:27;;;;;;;;;;;;;;;26.09;47.17;101808.97;5071577;28;20021;-44
2022/08/24 10:36:17;;;;;;;0.40;0.40;;;;;;;26.13;47.07;101806.69;5072313;28;19921;-46
2022/08/24 10:43:32;;;;;;;0.40;0.40;;;;;;;26.14;47.01;101802.91;5079022;28;20033;-43
2022/08/24 10:45:27;;;;;;;0.40;0.40;;;;;;;26.15;47.07;101805.44;5080999;28;20090;-47
2022/08/24 10:48:39;;;;;;;0.40;0.40;;;;;;;26.17;47.23;101806.09;5073711;28;20113;-45
2022/08/24 10:51:41;;;;;;;0.60;0.50;;;;;;;26.18;47.23;101796.03;5076023;28;20056;-45
2022/08/24 10:54:10;;;;;;;1.02;0.68;;;;;;;26.18;47.22;101799.59;5076452;28;20041;-44
2022/08/24 10:56:57;;;;;;;0.75;0.60;;;;;;;26.19;47.09;101800.44;5078981;28;20047;-47
2022/08/24 10:59:28;;;;;;;0.70;0.50;;;;;;;26.17;47.22;101797.09;5075884;28;20052;-42
2022/08/24 11:02:09;;;;;;;0.60;0.60;;;;;;;26.18;47.16;101793.31;5078968;28;20401;-44
2022/08/24 11:04:36;;;;;;;1.23;0.95;;;;;;;26.14;47.20;101790.13;5077425;28;20020;-44
2022/08/24 11:07:09;;;;;;;0.60;0.52;;;;;;;26.20;47.21;101802.13;5079209;28;20107;-46
2022/08/24 11:09:55;;;;;;;0.50;0.50;;;;;;;26.21;47.19;101792.94;5066205;28;20035;-42
2022/08/24 11:12:32;;;;;;;0.52;0.50;;;;;;;26.22;47.14;101794.63;5078258;28;20020;-47
2022/08/24 11:15:01;;;;;;;1.52;0.65;;;;;;;26.18;47.24;101787.88;5076324;28;20025;-44
2022/08/24 11:17:29;;;;;;;0.80;0.68;;;;;;;26.21;47.11;101779.31;5082036;28;20055;-44
2022/08/24 11:19:56;;;;;;;0.60;0.53;;;;;;;26.21;47.35;101786.59;5076549;28;20027;-44
2022/08/24 11:22:36;;;;;;;0.73;0.70;;;;;;;26.25;47.30;101785.19;5076736;28;20409;-43
2022/08/24 11:25:14;;;;;;;0.80;0.70;;;;;;;26.24;47.47;101788.94;5095206;28;20020;-42
2022/08/24 11:27:46;;;;;;;0.63;0.63;;;;;;;26.25;47.49;101786.06;5079210;28;20044;-43
2022/08/24 11:30:13;;;;;;;0.85;0.70;;;;;;;26.25;47.37;101790.63;5076112;28;20025;-49
2022/08/24 11:32:44;;;;;;;1.48;0.60;;;;;;;26.26;47.48;101785.00;5071575;28;20024;-40
2022/08/24 11:35:21;;;;;;;0.75;0.60;;;;;;;26.27;47.40;101783.94;5072593;28;20440;-44
2022/08/24 11:37:47;;;;;;;0.85;0.70;;;;;;;26.27;47.43;101773.03;5077043;28;20032;-44
2022/08/24 11:40:15;;;;;;;1.67;0.82;;;;;;;26.29;47.48;101778.28;5076316;28;20046;-46
2022/08/24 11:43:25;;;;;;;0.50;0.50;;;;;;;26.30;47.46;101780.00;5081946;28;20492;-43
2022/08/24 11:46:07;;;;;;;0.70;0.70;;;;;;;26.29;47.56;101770.97;5070742;28;20024;-46
2022/08/24 11:48:51;;;;;;;0.75;0.60;;;;;;;26.30;47.77;101767.22;5076152;28;20101;-42
2022/08/24 11:51:28;;;;;;;0.52;0.47;;;;;;;26.32;47.74;101770.56;5074235;28;20097;-45